Time;durP1;ratioP1;P1;durP2;ratioP2;P2;SDS_P1;SDS_P2;PMS_P1;PMS_P2;Temp;Humidity;BMP_temperature;BMP_pressure;BME280_temperature;BME280_humidity;BME280_pressure;Samples;Min_cycle;Max_cycle;Signal;HPM_P1;HPM_P2
2022/10/17 00:01:05;;;;;;;9.00;5.68;;;15.20;96.70;;;;;;5093155;28;20055;-83
2022/10/17 00:03:32;;;;;;;11.10;6.25;;;15.20;96.90;;;;;;5094132;28;20380;-83
2022/10/17 00:05:58;;;;;;;14.20;6.53;;;15.20;97.00;;;;;;5094572;28;20066;-83
2022/10/17 00:08:23;;;;;;;8.85;5.78;;;15.20;97.20;;;;;;5076935;28;20059;-82
2022/10/17 00:11:01;;;;;;;11.77;5.82;;;15.10;97.40;;;;;;5094467;28;20028;-83
2022/10/17 00:13:27;;;;;;;9.23;6.10;;;15.10;97.50;;;;;;5094180;28;20431;-83
2022/10/17 00:15:55;;;;;;;8.32;5.35;;;15.10;97.60;;;;;;5076422;28;20062;-83
2022/10/17 00:18:21;;;;;;;8.98;5.50;;;15.10;97.80;;;;;;5076871;28;20512;-83
2022/10/17 00:20:47;;;;;;;10.40;5.90;;;15.10;98.00;;;;;;5093259;28;20073;-84
2022/10/17 00:23:12;;;;;;;9.98;6.10;;;15.10;98.10;;;;;;5092817;28;20035;-83
2022/10/17 00:25:39;;;;;;;9.55;6.40;;;15.10;98.40;;;;;;5076197;28;20039;-84
2022/10/17 00:28:05;;;;;;;11.07;6.53;;;15.00;98.40;;;;;;5076063;28;20032;-83
2022/10/17 00:30:31;;;;;;;9.27;6.22;;;15.00;98.50;;;;;;5092874;28;20047;-83
2022/10/17 00:32:57;;;;;;;12.35;6.32;;;15.00;99.00;;;;;;5092985;28;20048;-84
2022/10/17 00:35:24;;;;;;;12.45;7.15;;;15.00;98.90;;;;;;5075936;28;20025;-84
2022/10/17 00:37:49;;;;;;;12.43;6.53;;;15.00;99.00;;;;;;5076087;28;20097;-83
2022/10/17 00:40:15;;;;;;;10.75;7.35;;;15.00;99.20;;;;;;5075840;28;20480;-84
2022/10/17 00:42:41;;;;;;;11.57;6.85;;;15.00;99.30;;;;;;5092422;28;20028;-83
2022/10/17 00:45:16;;;;;;;11.18;6.88;;;15.00;99.40;;;;;;5075848;28;20028;-83
2022/10/17 00:47:45;;;;;;;10.13;6.45;;;15.00;99.50;;;;;;5092724;28;20039;-83
2022/10/17 00:50:12;;;;;;;11.93;6.88;;;15.00;99.60;;;;;;5093654;28;20024;-84
2022/10/17 00:52:39;;;;;;;12.52;6.82;;;15.00;99.70;;;;;;5076198;28;20020;-83
2022/10/17 00:55:16;;;;;;;10.65;6.95;;;15.00;99.80;;;;;;5093641;28;20091;-83
2022/10/17 00:57:44;;;;;;;9.77;7.30;;;15.00;99.90;;;;;;5092751;28;20026;-83
2022/10/17 01:00:11;;;;;;;11.30;7.43;;;14.90;99.90;;;;;;5075948;28;20051;-84
2022/10/17 01:02:38;;;;;;;12.02;6.97;;;14.90;99.90;;;;;;5092514;28;20024;-83
2022/10/17 01:05:05;;;;;;;11.05;7.03;;;14.90;99.90;;;;;;5092549;28;20025;-83
2022/10/17 01:07:31;;;;;;;10.52;7.35;;;14.90;99.90;;;;;;5092383;28;20119;-83
2022/10/17 01:09:56;;;;;;;11.68;7.40;;;14.90;99.90;;;;;;5075351;28;20138;-83
2022/10/17 01:12:48;;;;;;;10.27;7.47;;;14.90;99.90;;;;;;5075449;28;20100;-84
2022/10/17 01:15:27;;;;;;;11.73;7.90;;;14.90;99.90;;;;;;5079336;28;20036;-84
2022/10/17 01:18:17;;;;;;;12.98;7.40;;;14.90;99.90;;;;;;5092523;28;20039;-84
2022/10/17 01:20:55;;;;;;;9.02;6.60;;;14.90;99.90;;;;;;5092238;28;20028;-84
2022/10/17 01:23:39;;;;;;;14.13;7.72;;;14.90;99.90;;;;;;5092282;28;20025;-84
2022/10/17 01:26:11;;;;;;;11.93;7.28;;;14.90;99.90;;;;;;5093399;28;20021;-83
2022/10/17 01:29:08;;;;;;;12.90;7.30;;;14.90;99.90;;;;;;5092578;28;20035;-83
2022/10/17 01:31:53;;;;;;;10.68;7.10;;;14.90;99.90;;;;;;5092058;28;20496;-83
2022/10/17 01:34:31;;;;;;;11.02;6.80;;;14.90;99.90;;;;;;5092162;28;20033;-83
2022/10/17 01:37:26;;;;;;;11.13;6.72;;;14.80;99.90;;;;;;5091994;28;20507;-83
2022/10/17 01:40:06;;;;;;;11.30;7.05;;;14.90;99.90;;;;;;5092351;28;20111;-83
2022/10/17 01:42:34;;;;;;;9.70;5.88;;;14.80;99.90;;;;;;5091976;28;20027;-83
2022/10/17 01:45:13;;;;;;;10.02;6.78;;;14.80;99.90;;;;;;5092172;28;20488;-84
2022/10/17 01:47:40;;;;;;;9.23;6.65;;;14.80;99.90;;;;;;5091948;28;20024;-83
2022/10/17 01:50:18;;;;;;;11.57;6.63;;;14.80;99.90;;;;;;5092105;28;20468;-83
2022/10/17 01:52:51;;;;;;;10.07;6.60;;;14.80;99.90;;;;;;5091881;28;20051;-83
2022/10/17 01:55:26;;;;;;;11.55;7.95;;;14.70;99.90;;;;;;5092712;28;20012;-84
2022/10/17 01:58:00;;;;;;;11.15;7.22;;;14.80;99.90;;;;;;5096897;28;20051;-83
2022/10/17 02:00:27;;;;;;;11.05;7.07;;;14.80;99.90;;;;;;5095588;28;20472;-83
2022/10/17 02:03:00;;;;;;;10.07;7.43;;;14.80;99.90;;;;;;5078819;28;20051;-84
2022/10/17 02:05:30;;;;;;;12.57;7.10;;;14.80;99.90;;;;;;5095719;28;20020;-84
2022/10/17 02:07:56;;;;;;;10.05;6.97;;;14.80;99.90;;;;;;5095516;28;20038;-83
2022/10/17 02:11:01;;;;;;;14.82;7.47;;;14.80;99.90;;;;;;5095229;28;20565;-83
2022/10/17 02:13:51;;;;;;;11.13;6.90;;;14.80;99.90;;;;;;5074080;28;20469;-83
2022/10/17 02:16:40;;;;;;;13.48;7.97;;;14.80;99.90;;;;;;5095369;28;20436;-83
2022/10/17 02:19:10;;;;;;;10.68;7.35;;;14.80;99.90;;;;;;5095343;28;20112;-83
2022/10/17 02:22:01;;;;;;;11.07;7.40;;;14.80;99.90;;;;;;5095541;28;20111;-83
2022/10/17 02:24:48;;;;;;;12.05;7.85;;;14.80;99.90;;;;;;5095125;28;20561;-84
2022/10/17 02:27:19;;;;;;;13.25;7.90;;;14.80;99.90;;;;;;5095081;28;20024;-83
2022/10/17 02:30:12;;;;;;;10.52;6.93;;;14.80;99.90;;;;;;5095026;28;20024;-83
2022/10/17 02:33:04;;;;;;;12.35;7.32;;;14.80;99.90;;;;;;5095137;28;20023;-84
2022/10/17 02:35:41;;;;;;;10.98;7.30;;;14.80;99.90;;;;;;5092078;28;20036;-83
2022/10/17 02:38:10;;;;;;;10.65;7.30;;;14.80;99.90;;;;;;5094904;28;20472;-84
2022/10/17 02:40:36;;;;;;;13.30;8.05;;;14.80;99.90;;;;;;5094790;28;20032;-84
2022/10/17 02:43:02;;;;;;;13.30;7.85;;;14.80;99.90;;;;;;5077980;28;20055;-84
2022/10/17 02:45:34;;;;;;;11.80;7.75;;;14.80;99.90;;;;;;5095338;28;20028;-84
2022/10/17 02:48:05;;;;;;;11.30;8.13;;;14.80;99.90;;;;;;5095043;28;20070;-84
2022/10/17 02:50:51;;;;;;;12.00;7.65;;;14.80;99.90;;;;;;5094622;28;20024;-84
2022/10/17 02:53:24;;;;;;;14.75;8.10;;;14.80;99.90;;;;;;5094713;28;20028;-84
2022/10/17 02:55:55;;;;;;;12.10;8.05;;;14.80;99.90;;;;;;5094631;28;20503;-83
2022/10/17 02:58:27;;;;;;;16.42;8.07;;;14.80;99.90;;;;;;5094562;28;20027;-84
2022/10/17 03:00:52;;;;;;;13.63;8.13;;;14.80;99.90;;;;;;5094987;28;20058;-83
2022/10/17 03:03:27;;;;;;;12.88;7.82;;;14.80;99.90;;;;;;5094609;28;20053;-84
2022/10/17 03:05:53;;;;;;;13.35;8.07;;;14.80;99.90;;;;;;5094276;28;20073;-84
2022/10/17 03:08:22;;;;;;;12.77;7.70;;;14.80;99.90;;;;;;5077465;28;20051;-83
2022/10/17 03:10:47;;;;;;;10.77;7.47;;;14.80;99.90;;;;;;5077798;28;20116;-83
2022/10/17 03:13:14;;;;;;;11.68;8.55;;;14.80;99.90;;;;;;5077365;28;20059;-84
2022/10/17 03:15:40;;;;;;;12.60;8.07;;;14.80;99.90;;;;;;5077377;28;20028;-83
2022/10/17 03:18:05;;;;;;;11.75;8.30;;;14.90;99.90;;;;;;5077815;28;20031;-86
2022/10/17 03:20:31;;;;;;;10.45;7.65;;;14.90;99.90;;;;;;5094805;28;20158;-86
2022/10/17 03:22:57;;;;;;;11.30;7.80;;;14.90;99.90;;;;;;5094914;28;20039;-86
2022/10/17 03:25:23;;;;;;;11.68;7.82;;;14.90;99.90;;;;;;5077809;28;20472;-87
2022/10/17 03:27:48;;;;;;;11.00;7.85;;;14.90;99.90;;;;;;5077559;28;20028;-86
2022/10/17 03:30:14;;;;;;;8.65;6.70;;;14.90;99.90;;;;;;5077480;28;20478;-87
2022/10/17 03:32:40;;;;;;;11.18;7.85;;;14.90;99.90;;;;;;5078002;28;20122;-87
2022/10/17 03:35:06;;;;;;;10.05;7.15;;;14.90;99.90;;;;;;5077921;28;20039;-86
2022/10/17 03:37:31;;;;;;;12.48;8.18;;;14.90;99.90;;;;;;5077498;28;20071;-87
2022/10/17 03:39:57;;;;;;;13.27;7.80;;;14.90;99.90;;;;;;5094596;28;20032;-87
2022/10/17 03:42:23;;;;;;;12.98;8.20;;;14.90;99.90;;;;;;5077551;28;20073;-87
2022/10/17 03:44:48;;;;;;;11.70;7.88;;;14.90;99.90;;;;;;5078096;28;20099;-86
2022/10/17 03:47:14;;;;;;;13.63;8.10;;;14.80;99.90;;;;;;5077531;28;20584;-86
2022/10/17 03:49:40;;;;;;;11.95;7.97;;;14.90;99.90;;;;;;5093827;28;20031;-87
2022/10/17 03:52:09;;;;;;;11.80;7.43;;;14.90;99.90;;;;;;5077114;28;20025;-87
2022/10/17 03:54:35;;;;;;;13.15;7.80;;;14.90;99.90;;;;;;5077537;28;20483;-87
2022/10/17 03:57:00;;;;;;;12.63;7.47;;;14.90;99.90;;;;;;5076980;28;20062;-87
2022/10/17 03:59:26;;;;;;;11.00;7.45;;;14.90;99.90;;;;;;5094654;28;20369;-87
2022/10/17 04:01:52;;;;;;;10.95;7.25;;;14.90;99.90;;;;;;5076741;28;20127;-84
2022/10/17 04:04:20;;;;;;;11.13;7.10;;;14.90;99.90;;;;;;5093311;28;20055;-83
2022/10/17 04:06:45;;;;;;;11.18;7.60;;;14.90;99.90;;;;;;5093086;28;20017;-83
2022/10/17 04:09:11;;;;;;;12.30;7.22;;;14.90;99.90;;;;;;5092862;28;20059;-84
2022/10/17 04:11:37;;;;;;;15.65;7.32;;;14.90;99.90;;;;;;5092985;28;20031;-83
2022/10/17 04:14:03;;;;;;;10.07;6.82;;;14.90;99.90;;;;;;5092940;28;20016;-83
2022/10/17 04:16:28;;;;;;;11.50;7.32;;;14.90;99.90;;;;;;5093101;28;20110;-83
2022/10/17 04:18:55;;;;;;;13.63;7.75;;;14.90;99.90;;;;;;5090920;28;20035;-84
2022/10/17 04:21:23;;;;;;;10.60;7.13;;;14.90;99.90;;;;;;5080676;28;20029;-84
2022/10/17 04:23:53;;;;;;;12.38;8.15;;;14.90;99.90;;;;;;5072568;28;20032;-84
2022/10/17 04:26:19;;;;;;;12.57;7.75;;;14.90;99.90;;;;;;5089601;28;21219;-84
2022/10/17 04:28:44;;;;;;;10.77;7.63;;;15.00;99.90;;;;;;5089314;28;20021;-84
2022/10/17 04:31:13;;;;;;;12.95;8.52;;;15.00;99.90;;;;;;5089455;28;20020;-84
2022/10/17 04:33:39;;;;;;;9.93;6.78;;;15.00;99.90;;;;;;5073958;28;20020;-84
2022/10/17 04:36:09;;;;;;;10.70;6.90;;;15.00;99.90;;;;;;5089839;28;20070;-83
2022/10/17 04:38:37;;;;;;;11.55;7.38;;;15.00;99.90;;;;;;5089864;28;20527;-84
2022/10/17 04:41:05;;;;;;;17.75;8.23;;;15.00;99.90;;;;;;5089450;28;20115;-84
2022/10/17 04:43:36;;;;;;;13.13;7.60;;;15.00;99.90;;;;;;5089901;28;20025;-84
2022/10/17 04:46:04;;;;;;;14.43;7.50;;;14.90;99.90;;;;;;5089978;28;20031;-84
2022/10/17 04:48:30;;;;;;;10.98;7.45;;;15.00;99.90;;;;;;5089269;28;20029;-84
2022/10/17 04:51:07;;;;;;;11.52;8.00;;;15.00;99.90;;;;;;5089186;28;20162;-84
2022/10/17 04:53:38;;;;;;;11.98;7.13;;;15.00;99.90;;;;;;5089266;28;20039;-84
2022/10/17 04:56:11;;;;;;;12.80;7.03;;;15.00;99.90;;;;;;5090264;28;20020;-84
2022/10/17 04:58:40;;;;;;;11.10;8.00;;;15.00;99.90;;;;;;5089078;28;20103;-84
2022/10/17 05:01:07;;;;;;;11.68;7.78;;;15.00;99.90;;;;;;5089255;28;20028;-84
2022/10/17 05:03:36;;;;;;;10.95;7.13;;;15.00;99.90;;;;;;5089344;28;20419;-84
2022/10/17 05:06:11;;;;;;;11.40;7.88;;;14.90;99.90;;;;;;5089350;28;20031;-84
2022/10/17 05:08:37;;;;;;;13.50;8.10;;;14.90;99.90;;;;;;5088931;28;20123;-84
2022/10/17 05:11:04;;;;;;;11.25;6.53;;;14.90;99.90;;;;;;5088821;28;20040;-82
2022/10/17 05:13:30;;;;;;;12.43;7.63;;;14.90;99.90;;;;;;5088912;28;20505;-84
2022/10/17 05:16:00;;;;;;;12.88;7.65;;;15.00;99.90;;;;;;5089276;28;20016;-83
2022/10/17 05:18:28;;;;;;;12.85;7.10;;;15.00;99.90;;;;;;5072182;28;20027;-83
2022/10/17 05:20:54;;;;;;;16.42;6.95;;;15.10;99.90;;;;;;5089017;28;20017;-82
2022/10/17 05:23:20;;;;;;;11.68;6.80;;;15.10;99.90;;;;;;5088819;28;20043;-84
2022/10/17 05:25:45;;;;;;;12.35;6.85;;;15.10;99.90;;;;;;5071964;28;20525;-83
2022/10/17 05:28:11;;;;;;;11.40;7.13;;;15.20;99.90;;;;;;5072114;28;20108;-83
2022/10/17 05:30:36;;;;;;;10.07;6.47;;;15.10;99.90;;;;;;5089904;28;20023;-83
2022/10/17 05:33:02;;;;;;;10.50;6.60;;;15.30;99.90;;;;;;5092712;28;20048;-83
2022/10/17 05:35:28;;;;;;;11.63;7.18;;;15.30;99.90;;;;;;5092752;28;20054;-83
2022/10/17 05:37:53;;;;;;;11.88;6.38;;;15.40;99.90;;;;;;5075684;28;20021;-83
2022/10/17 05:40:21;;;;;;;10.88;6.82;;;15.40;99.90;;;;;;5075692;28;20085;-83
2022/10/17 05:42:48;;;;;;;10.95;6.55;;;15.50;99.90;;;;;;5076226;28;20024;-83
2022/10/17 05:45:14;;;;;;;10.15;5.55;;;15.50;99.90;;;;;;5092454;28;20031;-83
2022/10/17 05:47:40;;;;;;;9.95;6.45;;;15.50;99.90;;;;;;5092847;28;20395;-83
2022/10/17 05:50:07;;;;;;;10.57;6.38;;;15.60;99.90;;;;;;5092212;28;20028;-83
2022/10/17 05:52:33;;;;;;;10.68;6.57;;;15.60;99.90;;;;;;5092384;28;20017;-83
2022/10/17 05:54:58;;;;;;;10.15;6.38;;;15.60;99.90;;;;;;5092298;28;20115;-83
2022/10/17 05:57:27;;;;;;;10.05;6.68;;;15.60;99.90;;;;;;5092389;28;20027;-83
2022/10/17 05:59:53;;;;;;;11.63;6.45;;;15.60;99.90;;;;;;5092186;28;20499;-83
2022/10/17 06:02:18;;;;;;;11.27;6.47;;;15.60;99.90;;;;;;5092347;28;20036;-83
2022/10/17 06:04:45;;;;;;;13.90;6.65;;;15.70;99.90;;;;;;5092115;28;20056;-83
2022/10/17 06:07:14;;;;;;;9.85;6.65;;;15.70;99.90;;;;;;5075504;28;20040;-83
2022/10/17 06:09:40;;;;;;;10.65;6.65;;;15.70;99.90;;;;;;5091823;28;20052;-82
2022/10/17 06:12:06;;;;;;;9.32;6.35;;;15.70;99.90;;;;;;5092497;28;20024;-83
2022/10/17 06:14:32;;;;;;;10.15;6.63;;;15.80;99.90;;;;;;5092061;28;20024;-82
2022/10/17 06:16:58;;;;;;;12.35;6.50;;;15.80;99.90;;;;;;5091855;28;20024;-82
2022/10/17 06:19:24;;;;;;;9.20;6.30;;;15.80;99.90;;;;;;5091568;28;20471;-82
2022/10/17 06:21:49;;;;;;;9.80;6.72;;;15.80;99.90;;;;;;5091574;28;20028;-82
2022/10/17 06:24:15;;;;;;;9.90;6.25;;;15.90;99.90;;;;;;5091530;28;20044;-83
2022/10/17 06:26:41;;;;;;;11.20;6.57;;;15.90;99.90;;;;;;5074721;28;20025;-83
2022/10/17 06:29:07;;;;;;;11.80;6.78;;;15.90;99.90;;;;;;5091694;28;20119;-82
2022/10/17 06:31:33;;;;;;;15.65;6.63;;;15.90;99.90;;;;;;5091661;28;20032;-82
2022/10/17 06:33:59;;;;;;;11.43;6.88;;;16.00;99.90;;;;;;5091736;28;20025;-82
2022/10/17 06:36:24;;;;;;;10.90;7.05;;;16.10;99.90;;;;;;5075076;28;20051;-84
2022/10/17 06:38:50;;;;;;;12.10;7.18;;;16.10;99.90;;;;;;5074846;28;20036;-82
2022/10/17 06:41:18;;;;;;;9.15;6.18;;;16.10;99.90;;;;;;5090959;28;20024;-82
2022/10/17 06:43:45;;;;;;;12.25;6.25;;;16.10;99.90;;;;;;5091852;28;20093;-82
2022/10/17 06:46:12;;;;;;;9.45;6.65;;;16.10;99.90;;;;;;5075728;28;20400;-82
2022/10/17 06:48:38;;;;;;;11.48;6.85;;;16.20;99.90;;;;;;5075854;28;20024;-83
2022/10/17 06:51:05;;;;;;;8.65;5.90;;;16.20;99.90;;;;;;5091270;28;20525;-82
2022/10/17 06:53:33;;;;;;;8.98;5.75;;;16.30;99.90;;;;;;5092015;28;20078;-82
2022/10/17 06:56:03;;;;;;;12.23;5.70;;;16.30;99.90;;;;;;5091158;28;20062;-83
2022/10/17 06:58:31;;;;;;;9.50;6.03;;;16.30;99.90;;;;;;5091134;28;20389;-83
2022/10/17 07:01:04;;;;;;;8.95;5.45;;;16.40;99.90;;;;;;5091342;28;20021;-83
2022/10/17 07:03:30;;;;;;;8.00;5.95;;;16.40;99.90;;;;;;5091046;28;20017;-83
2022/10/17 07:05:58;;;;;;;11.68;6.25;;;16.50;99.90;;;;;;5075516;28;20114;-83
2022/10/17 07:08:24;;;;;;;10.30;5.43;;;16.50;99.90;;;;;;5090716;28;20023;-82
2022/10/17 07:10:50;;;;;;;8.32;4.82;;;16.60;99.90;;;;;;5075328;28;20052;-83
2022/10/17 07:13:17;;;;;;;11.02;5.35;;;16.60;99.90;;;;;;5091159;28;20071;-82
2022/10/17 07:15:42;;;;;;;9.95;5.65;;;16.70;99.90;;;;;;5073981;28;20472;-82
2022/10/17 07:18:09;;;;;;;8.20;4.93;;;16.70;99.90;;;;;;5090691;28;20052;-82
2022/10/17 07:20:35;;;;;;;8.68;5.55;;;16.80;99.90;;;;;;5090833;28;20048;-83
2022/10/17 07:23:00;;;;;;;9.25;5.22;;;16.80;99.90;;;;;;5090657;28;20052;-82
2022/10/17 07:25:27;;;;;;;10.13;5.72;;;16.90;99.90;;;;;;5090882;28;20066;-82
2022/10/17 07:27:53;;;;;;;9.07;5.13;;;16.90;99.90;;;;;;5073683;28;20020;-82
2022/10/17 07:30:19;;;;;;;8.63;4.93;;;17.00;99.90;;;;;;5091707;28;20028;-83
2022/10/17 07:32:45;;;;;;;11.73;5.63;;;17.10;99.90;;;;;;5093748;28;20020;-83
2022/10/17 07:35:13;;;;;;;8.98;5.35;;;17.10;99.90;;;;;;5076641;28;20074;-83
2022/10/17 07:37:39;;;;;;;8.77;5.18;;;17.20;99.90;;;;;;5093610;28;20012;-83
2022/10/17 07:40:08;;;;;;;9.35;4.70;;;17.20;99.90;;;;;;5077167;28;20032;-84
2022/10/17 07:42:37;;;;;;;10.60;5.35;;;17.30;99.90;;;;;;5093753;28;20436;-83
2022/10/17 07:45:03;;;;;;;7.03;4.60;;;17.30;99.90;;;;;;5076760;28;20506;-83
2022/10/17 07:47:29;;;;;;;7.15;4.60;;;17.40;99.90;;;;;;5093471;28;20056;-83
2022/10/17 07:49:56;;;;;;;8.00;5.53;;;17.40;99.90;;;;;;5093627;28;20032;-82
2022/10/17 07:52:22;;;;;;;8.88;4.90;;;17.40;99.90;;;;;;5093201;28;20039;-82
2022/10/17 07:54:47;;;;;;;9.60;5.18;;;17.40;99.90;;;;;;5093510;28;20380;-83
2022/10/17 07:57:13;;;;;;;8.50;5.03;;;17.40;99.90;;;;;;5093527;28;20361;-82
2022/10/17 07:59:39;;;;;;;9.43;5.88;;;17.50;99.90;;;;;;5093264;28;20024;-83
2022/10/17 08:02:06;;;;;;;7.40;5.10;;;17.40;99.90;;;;;;5093768;28;20036;-83
2022/10/17 08:04:33;;;;;;;12.20;5.80;;;17.50;99.90;;;;;;5094606;28;20158;-83
2022/10/17 08:06:59;;;;;;;9.25;5.82;;;17.40;99.90;;;;;;5093527;28;20248;-83
2022/10/17 08:09:25;;;;;;;13.57;6.25;;;17.50;99.90;;;;;;5088663;28;20054;-83
2022/10/17 08:11:50;;;;;;;12.00;5.50;;;17.50;99.90;;;;;;5072814;28;20477;-83
2022/10/17 08:14:16;;;;;;;9.27;5.88;;;17.40;99.90;;;;;;5072808;28;20029;-83
2022/10/17 08:16:42;;;;;;;13.07;5.43;;;17.40;99.90;;;;;;5056464;28;20021;-81
2022/10/17 08:19:10;;;;;;;10.52;5.72;;;17.50;99.90;;;;;;5056033;28;20024;-82
2022/10/17 08:21:36;;;;;;;10.95;7.63;;;17.40;99.90;;;;;;5056118;28;20043;-81
2022/10/17 08:24:02;;;;;;;10.07;6.47;;;17.40;99.90;;;;;;5072554;28;20485;-81
2022/10/17 08:26:29;;;;;;;10.77;7.00;;;17.30;99.90;;;;;;5072521;28;20028;-83
2022/10/17 08:28:55;;;;;;;13.10;7.82;;;17.20;99.90;;;;;;5056058;28;20025;-82
2022/10/17 08:31:21;;;;;;;12.60;8.07;;;17.10;99.90;;;;;;5055994;28;20036;-81
2022/10/17 08:33:48;;;;;;;16.33;9.20;;;17.00;99.90;;;;;;5072517;28;20089;-83
2022/10/17 08:36:16;;;;;;;11.95;8.38;;;17.00;99.90;;;;;;5056820;28;20476;-82
2022/10/17 08:38:43;;;;;;;12.23;7.68;;;16.90;99.90;;;;;;5074321;28;20032;-82
2022/10/17 08:41:40;;;;;;;14.38;8.18;;;16.80;99.90;;;;;;5072877;28;20492;-83
2022/10/17 08:44:27;;;;;;;11.63;8.15;;;16.80;99.90;;;;;;5073664;28;20063;-82
2022/10/17 08:46:59;;;;;;;17.95;7.82;;;16.70;99.90;;;;;;5072542;28;20538;-83
2022/10/17 08:49:51;;;;;;;13.55;8.25;;;16.70;99.90;;;;;;5072550;28;20046;-84
2022/10/17 08:52:39;;;;;;;16.00;8.52;;;16.70;99.90;;;;;;5073632;28;20070;-82
2022/10/17 08:55:33;;;;;;;13.57;8.80;;;16.70;99.90;;;;;;5072217;28;20050;-81
2022/10/17 08:57:59;;;;;;;13.90;8.52;;;16.60;99.90;;;;;;5071835;28;20035;-84
2022/10/17 09:00:27;;;;;;;12.68;7.90;;;16.60;99.90;;;;;;5055840;28;20484;-84
2022/10/17 09:03:07;;;;;;;14.23;9.18;;;16.60;99.90;;;;;;5072106;28;20067;-82
2022/10/17 09:05:51;;;;;;;17.80;9.68;;;16.60;99.90;;;;;;5071976;28;20020;-82
2022/10/17 09:08:44;;;;;;;12.02;8.27;;;16.50;99.90;;;;;;5073193;28;20036;-83
2022/10/17 09:11:34;;;;;;;12.43;7.50;;;16.60;99.90;;;;;;5072096;28;20477;-83
2022/10/17 09:14:42;;;;;;;14.80;8.02;;;16.60;99.90;;;;;;5072081;28;20017;-84
2022/10/17 09:17:32;;;;;;;13.95;8.10;;;16.60;99.90;;;;;;5071778;28;20021;-83
2022/10/17 09:20:09;;;;;;;11.35;7.38;;;16.50;99.90;;;;;;5073141;28;20016;-83
2022/10/17 09:22:50;;;;;;;11.00;6.85;;;16.50;99.90;;;;;;5071877;28;20477;-83
2022/10/17 09:25:19;;;;;;;12.35;7.78;;;16.50;99.90;;;;;;5071920;28;20476;-82
2022/10/17 09:28:11;;;;;;;12.13;7.75;;;16.60;99.90;;;;;;5072013;28;20029;-83
2022/10/17 09:30:52;;;;;;;10.82;6.78;;;16.60;99.90;;;;;;5071851;28;20491;-83
2022/10/17 09:33:23;;;;;;;11.70;8.23;;;16.60;99.90;;;;;;5071729;28;20055;-83
2022/10/17 09:35:49;;;;;;;13.50;7.53;;;16.60;99.90;;;;;;5071651;28;20021;-81
2022/10/17 09:38:21;;;;;;;15.35;7.38;;;16.60;99.90;;;;;;5054865;28;20031;-83
2022/10/17 09:40:59;;;;;;;12.63;7.15;;;16.60;99.90;;;;;;5072177;28;20024;-83
2022/10/17 09:43:26;;;;;;;12.38;6.88;;;16.60;99.90;;;;;;5071770;28;20047;-82
2022/10/17 09:46:02;;;;;;;14.32;6.97;;;16.60;99.90;;;;;;5071602;28;20029;-84
2022/10/17 09:48:38;;;;;;;12.60;8.45;;;16.60;99.90;;;;;;5072974;28;20021;-83
2022/10/17 09:51:05;;;;;;;12.80;7.97;;;16.60;99.90;;;;;;5071516;28;20161;-82
2022/10/17 09:53:38;;;;;;;13.63;7.65;;;16.60;99.90;;;;;;5055166;28;20491;-83
2022/10/17 09:56:13;;;;;;;12.02;7.15;;;16.60;99.90;;;;;;5071547;28;20377;-82
2022/10/17 09:58:59;;;;;;;10.65;6.95;;;16.60;99.90;;;;;;5071601;28;20031;-83
2022/10/17 10:01:30;;;;;;;10.75;6.72;;;16.70;99.90;;;;;;5071169;28;20378;-82
2022/10/17 10:04:11;;;;;;;10.43;6.53;;;16.70;99.90;;;;;;5071350;28;20381;-82
2022/10/17 10:06:38;;;;;;;10.70;6.38;;;16.70;99.90;;;;;;5071450;28;20028;-82
2022/10/17 10:09:06;;;;;;;10.50;6.85;;;16.70;99.90;;;;;;5071145;28;20445;-82
2022/10/17 10:11:53;;;;;;;9.82;6.38;;;16.70;99.90;;;;;;5054923;28;20380;-82
2022/10/17 10:14:34;;;;;;;10.70;6.10;;;16.80;99.90;;;;;;5071307;28;20025;-83
2022/10/17 10:17:02;;;;;;;11.95;6.18;;;16.80;99.90;;;;;;5073963;28;20023;-83
2022/10/17 10:19:31;;;;;;;9.20;5.32;;;16.80;99.90;;;;;;5058688;28;20553;-83
2022/10/17 10:22:13;;;;;;;12.85;6.07;;;16.80;99.90;;;;;;5074988;28;20033;-81
2022/10/17 10:24:39;;;;;;;10.38;5.60;;;16.80;99.90;;;;;;5075256;28;20061;-83
2022/10/17 10:27:09;;;;;;;9.23;6.32;;;16.70;99.90;;;;;;5058385;28;20028;-82
2022/10/17 10:29:48;;;;;;;8.15;5.95;;;16.80;99.90;;;;;;5076065;28;20031;-83
2022/10/17 10:32:25;;;;;;;10.10;6.03;;;16.80;99.90;;;;;;5074882;28;20379;-83
2022/10/17 10:35:02;;;;;;;9.23;5.72;;;16.80;99.90;;;;;;5075344;28;20013;-84
2022/10/17 10:37:31;;;;;;;10.77;6.53;;;16.80;99.90;;;;;;5075178;28;20021;-83
2022/10/17 10:40:03;;;;;;;11.00;5.85;;;16.80;99.90;;;;;;5074640;28;20033;-84
2022/10/17 10:42:38;;;;;;;10.00;6.28;;;16.80;99.90;;;;;;5075883;28;20025;-82
2022/10/17 10:45:18;;;;;;;10.52;6.65;;;16.80;99.90;;;;;;5074694;28;20024;-83
2022/10/17 10:48:02;;;;;;;9.32;5.88;;;16.90;99.90;;;;;;5074591;28;20024;-83
2022/10/17 10:50:30;;;;;;;15.00;6.80;;;16.90;99.90;;;;;;5074312;28;20057;-83
2022/10/17 10:53:19;;;;;;;10.98;6.80;;;16.90;99.90;;;;;;5074345;28;20039;-83
2022/10/17 10:56:13;;;;;;;11.13;6.15;;;17.00;99.90;;;;;;5037487;28;20078;-83
2022/10/17 10:58:46;;;;;;;11.25;6.25;;;17.00;99.90;;;;;;5074538;28;20017;-84
2022/10/17 11:01:36;;;;;;;10.75;6.60;;;17.00;99.90;;;;;;5074328;28;20021;-84
2022/10/17 11:04:39;;;;;;;9.88;6.10;;;17.00;99.90;;;;;;5074289;28;20085;-84
2022/10/17 11:07:18;;;;;;;8.77;5.32;;;17.00;99.90;;;;;;5075492;28;20016;-83
2022/10/17 11:10:01;;;;;;;8.95;5.28;;;17.00;99.90;;;;;;5073927;28;20044;-83
2022/10/17 11:12:33;;;;;;;9.23;5.63;;;17.00;99.90;;;;;;5074171;28;20024;-84
2022/10/17 11:15:08;;;;;;;8.70;5.53;;;17.00;99.90;;;;;;5074126;28;20020;-84
2022/10/17 11:17:49;;;;;;;9.80;6.55;;;17.00;99.90;;;;;;5074044;28;20470;-83
2022/10/17 11:20:30;;;;;;;11.15;6.20;;;17.00;99.90;;;;;;5074116;28;20100;-84
2022/10/17 11:23:08;;;;;;;9.50;6.55;;;17.00;99.90;;;;;;5075247;28;20385;-83
2022/10/17 11:25:36;;;;;;;11.20;6.13;;;17.00;99.90;;;;;;5073774;28;20065;-83
2022/10/17 11:28:10;;;;;;;11.05;6.47;;;17.00;99.90;;;;;;5073695;28;20028;-83
2022/10/17 11:30:56;;;;;;;11.07;6.47;;;17.00;99.90;;;;;;5073482;28;20487;-83
2022/10/17 11:33:47;;;;;;;11.02;6.55;;;17.10;99.90;;;;;;5073978;28;20380;-83
2022/10/17 11:36:16;;;;;;;10.38;6.03;;;17.10;99.90;;;;;;5073741;28;20106;-83
2022/10/17 11:39:00;;;;;;;11.32;6.68;;;17.10;99.90;;;;;;5073861;28;20397;-83
2022/10/17 11:41:35;;;;;;;12.45;6.50;;;17.10;99.90;;;;;;5073793;28;20097;-83
2022/10/17 11:44:45;;;;;;;13.05;7.53;;;17.20;99.90;;;;;;5073504;28;20032;-83
2022/10/17 11:47:50;;;;;;;10.57;6.70;;;17.20;99.90;;;;;;5067396;28;20063;-83
2022/10/17 11:50:34;;;;;;;10.90;7.07;;;17.20;99.90;;;;;;5073229;28;20111;-83
2022/10/17 11:53:14;;;;;;;12.82;7.43;;;17.30;99.90;;;;;;5074633;28;20025;-82
2022/10/17 11:55:42;;;;;;;13.50;8.55;;;17.30;99.90;;;;;;5073788;28;20016;-83
2022/10/17 11:58:29;;;;;;;11.63;8.13;;;17.30;99.90;;;;;;5073287;28;20055;-83
2022/10/17 12:01:22;;;;;;;11.70;8.07;;;17.30;99.90;;;;;;5073486;28;20025;-84
2022/10/17 12:04:12;;;;;;;11.80;8.13;;;17.30;99.90;;;;;;5073092;28;20020;-83
2022/10/17 12:06:52;;;;;;;13.88;7.63;;;17.30;99.90;;;;;;5073777;28;20451;-84
2022/10/17 12:09:44;;;;;;;14.25;8.80;;;17.30;99.90;;;;;;5072663;28;20041;-83
2022/10/17 12:12:09;;;;;;;13.13;8.77;;;17.30;99.90;;;;;;5073076;28;20115;-83
2022/10/17 12:14:36;;;;;;;14.25;9.68;;;17.30;99.90;;;;;;5056894;28;20111;-83
2022/10/17 12:17:04;;;;;;;12.93;8.45;;;17.30;99.90;;;;;;5072823;28;20461;-84
2022/10/17 12:19:34;;;;;;;14.75;9.50;;;17.30;99.90;;;;;;5056383;28;20048;-82
2022/10/17 12:22:19;;;;;;;11.70;8.95;;;17.30;99.90;;;;;;5074416;28;20051;-84
2022/10/17 12:25:02;;;;;;;12.73;8.73;;;17.30;99.90;;;;;;5073105;28;20480;-83
2022/10/17 12:27:45;;;;;;;16.08;9.63;;;17.30;99.90;;;;;;5072791;28;20020;-83
2022/10/17 12:30:20;;;;;;;14.13;10.27;;;17.30;99.90;;;;;;5072655;28;20035;-83
2022/10/17 12:33:04;;;;;;;15.18;9.65;;;17.30;99.90;;;;;;5072911;28;20024;-84
2022/10/17 12:35:32;;;;;;;12.45;9.15;;;17.40;99.90;;;;;;5072455;28;20069;-84
2022/10/17 12:38:15;;;;;;;12.98;8.75;;;17.40;99.90;;;;;;5072470;28;20362;-83
2022/10/17 12:40:41;;;;;;;12.25;8.50;;;17.40;99.90;;;;;;5071809;28;20040;-83
2022/10/17 12:43:13;;;;;;;14.68;9.52;;;17.40;99.90;;;;;;5072745;28;20029;-84
2022/10/17 12:45:53;;;;;;;14.20;9.07;;;17.50;99.90;;;;;;5072588;28;20029;-84
2022/10/17 12:48:38;;;;;;;14.35;9.35;;;17.40;99.90;;;;;;5072914;28;20032;-84
2022/10/17 12:51:09;;;;;;;15.82;8.85;;;17.40;99.90;;;;;;5072298;28;20029;-83
2022/10/17 12:53:53;;;;;;;13.35;8.48;;;17.40;99.90;;;;;;5072527;28;20020;-83
2022/10/17 12:56:28;;;;;;;12.40;7.70;;;17.50;99.90;;;;;;5072185;28;20031;-82
2022/10/17 12:58:55;;;;;;;13.43;9.75;;;17.50;99.90;;;;;;5072229;28;20035;-84
2022/10/17 13:01:33;;;;;;;14.75;8.98;;;17.50;99.90;;;;;;5072148;28;20040;-83
2022/10/17 13:04:05;;;;;;;13.02;9.60;;;17.50;99.90;;;;;;5072263;28;20024;-84